createdAt,value
2023-04-24T00:00:46.137Z,100.00
2023-04-24T00:03:15.211Z,100.00
2023-04-24T00:05:45.325Z,100.00
2023-04-24T00:08:13.840Z,100.00
2023-04-24T00:10:43.116Z,100.00
2023-04-24T00:13:11.674Z,100.00
2023-04-24T00:15:40.465Z,100.00
2023-04-24T00:18:09.013Z,100.00
2023-04-24T00:20:37.666Z,100.00
2023-04-24T00:23:07.547Z,100.00
2023-04-24T00:25:36.251Z,100.00
2023-04-24T00:28:04.868Z,100.00
2023-04-24T00:30:33.610Z,100.00
2023-04-24T00:33:02.180Z,98.79
2023-04-24T00:35:30.767Z,100.00
2023-04-24T00:37:59.321Z,100.00
2023-04-24T00:40:30.278Z,100.00
2023-04-24T00:42:59.482Z,100.00
2023-04-24T00:45:28.045Z,100.00
2023-04-24T00:47:56.686Z,100.00
2023-04-24T00:50:26.195Z,100.00
2023-04-24T00:52:54.921Z,100.00
2023-04-24T00:55:23.491Z,100.00
2023-04-24T00:57:53.794Z,95.42
2023-04-24T01:00:22.591Z,100.00
2023-04-24T01:02:52.992Z,100.00
2023-04-24T01:05:21.690Z,100.00
2023-04-24T01:07:50.552Z,100.00
2023-04-24T01:10:21.324Z,100.00
2023-04-24T01:12:49.909Z,100.00
2023-04-24T01:15:20.271Z,100.00
2023-04-24T01:17:48.839Z,100.00
2023-04-24T01:20:17.988Z,100.00
2023-04-24T01:22:47.955Z,100.00
2023-04-24T01:25:16.495Z,95.68
2023-04-24T01:27:45.702Z,100.00
2023-04-24T01:30:15.700Z,100.00
2023-04-24T01:32:45.938Z,100.00
2023-04-24T01:35:14.505Z,100.00
2023-04-24T01:37:43.067Z,100.00
2023-04-24T01:40:13.531Z,100.00
2023-04-24T01:42:44.084Z,100.00
2023-04-24T01:45:14.795Z,100.00
2023-04-24T01:47:43.864Z,99.81
2023-04-24T01:50:12.853Z,100.00
2023-04-24T01:52:41.472Z,100.00
2023-04-24T01:55:12.337Z,96.93
2023-04-24T01:57:41.826Z,96.95
2023-04-24T02:00:13.112Z,100.00
2023-04-24T02:02:44.243Z,100.00
2023-04-24T02:05:14.708Z,100.00
2023-04-24T02:07:43.272Z,100.00
2023-04-24T02:10:13.785Z,99.65
2023-04-24T02:12:42.318Z,100.00
2023-04-24T02:15:11.777Z,100.00
2023-04-24T02:17:40.544Z,100.00
2023-04-24T02:20:10.235Z,100.00
2023-04-24T02:22:38.781Z,100.00
2023-04-24T02:25:09.034Z,97.35
2023-04-24T02:27:38.981Z,100.00
2023-04-24T02:30:09.203Z,100.00
2023-04-24T02:32:37.814Z,100.00
2023-04-24T02:35:07.068Z,100.00
2023-04-24T02:37:35.659Z,100.00
2023-04-24T02:40:06.291Z,95.12
2023-04-24T02:42:34.870Z,98.89
2023-04-24T02:45:06.087Z,90.02
2023-04-24T02:47:34.720Z,100.00
2023-04-24T02:50:03.880Z,100.00
2023-04-24T02:52:32.455Z,100.00
2023-04-24T02:55:00.979Z,100.00
2023-04-24T02:57:29.517Z,100.00
2023-04-24T02:59:58.018Z,100.00
2023-04-24T03:02:28.150Z,100.00
2023-04-24T03:04:58.089Z,100.00
2023-04-24T03:07:26.624Z,100.00
2023-04-24T03:09:55.223Z,100.00
2023-04-24T03:12:24.891Z,100.00
2023-04-24T03:14:53.529Z,99.13
2023-04-24T03:17:22.132Z,100.00
2023-04-24T03:19:52.081Z,100.00
2023-04-24T03:22:20.595Z,97.39
2023-04-24T03:24:49.601Z,100.00
2023-04-24T03:27:18.135Z,100.00
2023-04-24T03:29:46.689Z,100.00
2023-04-24T03:32:15.426Z,100.00
2023-04-24T03:34:44.010Z,100.00
2023-04-24T03:37:13.879Z,98.23
2023-04-24T03:39:42.711Z,100.00
2023-04-24T03:42:11.468Z,100.00
2023-04-24T03:44:40.076Z,100.00
2023-04-24T03:47:08.598Z,100.00
2023-04-24T03:49:37.775Z,100.00
2023-04-24T03:52:06.337Z,100.00
2023-04-24T03:54:36.309Z,100.00
2023-04-24T03:57:05.738Z,100.00
2023-04-24T03:59:34.336Z,100.00
2023-04-24T04:02:02.965Z,95.34
2023-04-24T04:04:31.895Z,96.87
2023-04-24T04:07:02.156Z,100.00
2023-04-24T04:09:30.774Z,100.00
2023-04-24T04:12:01.526Z,100.00
2023-04-24T04:14:30.629Z,100.00
2023-04-24T04:16:59.201Z,100.00
2023-04-24T04:19:27.790Z,100.00
2023-04-24T04:21:57.252Z,97.84
2023-04-24T04:24:27.582Z,100.00
2023-04-24T04:26:59.185Z,100.00
2023-04-24T04:29:29.116Z,100.00
2023-04-24T04:31:57.702Z,100.00
2023-04-24T04:34:26.409Z,96.89
2023-04-24T04:36:54.943Z,97.32
2023-04-24T04:39:23.506Z,96.31
2023-04-24T04:41:52.015Z,91.02
2023-04-24T04:44:20.581Z,100.00
2023-04-24T04:46:51.099Z,100.00
2023-04-24T04:49:19.785Z,97.53
2023-04-24T04:51:48.318Z,100.00
2023-04-24T04:54:17.135Z,100.00
2023-04-24T04:56:45.693Z,100.00
2023-04-24T04:59:14.430Z,100.00
2023-04-24T05:01:43.232Z,99.88
2023-04-24T05:04:13.365Z,100.00
2023-04-24T05:06:42.169Z,100.00
2023-04-24T05:09:10.713Z,100.00
2023-04-24T05:11:39.258Z,100.00
2023-04-24T05:14:07.802Z,100.00
2023-04-24T05:16:37.970Z,100.00
2023-04-24T05:19:06.775Z,100.00
2023-04-24T05:21:36.655Z,100.00
2023-04-24T05:24:05.784Z,100.00
2023-04-24T05:26:34.388Z,100.00
2023-04-24T05:29:03.312Z,100.00
2023-04-24T05:31:32.044Z,100.00
2023-04-24T05:34:00.729Z,100.00
2023-04-24T05:36:29.288Z,100.00
2023-04-24T05:38:59.185Z,100.00
2023-04-24T05:41:27.742Z,100.00
2023-04-24T05:43:56.361Z,100.00
2023-04-24T05:46:25.010Z,100.00
2023-04-24T05:48:53.609Z,100.00
2023-04-24T05:51:22.146Z,100.00
2023-04-24T05:53:50.666Z,100.00
2023-04-24T05:56:21.433Z,100.00
2023-04-24T05:58:50.025Z,100.00
2023-04-24T06:01:19.303Z,100.00
2023-04-24T06:03:47.934Z,100.00
2023-04-24T06:06:17.013Z,100.00
2023-04-24T06:08:46.473Z,100.00
2023-04-24T06:11:15.372Z,100.00
2023-04-24T06:13:45.351Z,100.00
2023-04-24T06:16:14.124Z,100.00
2023-04-24T06:18:42.786Z,100.00
2023-04-24T06:21:11.342Z,100.00
2023-04-24T06:23:39.858Z,100.00
2023-04-24T06:26:08.414Z,100.00
2023-04-24T06:28:37.183Z,100.00
2023-04-24T06:31:07.238Z,100.00
2023-04-24T06:33:35.788Z,100.00
2023-04-24T06:36:05.041Z,100.00
2023-04-24T06:38:33.605Z,100.00
2023-04-24T06:41:02.134Z,100.00
2023-04-24T06:43:30.646Z,100.00
2023-04-24T06:46:00.193Z,100.00
2023-04-24T06:48:30.084Z,100.00
2023-04-24T06:50:58.646Z,100.00
2023-04-24T06:53:27.184Z,100.00
2023-04-24T06:56:01.257Z,100.00
2023-04-24T06:58:29.836Z,100.00
2023-04-24T07:00:58.423Z,100.00
2023-04-24T07:03:27.087Z,100.00
2023-04-24T07:05:58.899Z,100.00
2023-04-24T07:08:27.471Z,100.00
2023-04-24T07:10:57.131Z,100.00
2023-04-24T07:13:25.795Z,100.00
2023-04-24T07:15:56.179Z,100.00
2023-04-24T07:18:24.972Z,100.00
2023-04-24T07:20:53.534Z,100.00
2023-04-24T07:23:23.432Z,100.00
2023-04-24T07:25:52.101Z,100.00
2023-04-24T07:28:20.648Z,100.00
2023-04-24T07:30:49.190Z,100.00
2023-04-24T07:33:17.773Z,100.00
2023-04-24T07:35:46.414Z,100.00
2023-04-24T07:38:15.186Z,100.00
2023-04-24T07:40:46.261Z,100.00
2023-04-24T07:43:16.690Z,100.00
2023-04-24T07:45:45.381Z,100.00
2023-04-24T07:48:15.876Z,100.00
2023-04-24T07:50:44.405Z,100.00
2023-04-24T07:53:13.143Z,100.00
2023-04-24T07:55:41.698Z,100.00
2023-04-24T07:58:11.770Z,100.00
2023-04-24T08:00:40.426Z,100.00
2023-04-24T08:03:09.201Z,100.00
2023-04-24T08:05:39.439Z,100.00
2023-04-24T08:08:09.519Z,100.00
2023-04-24T08:10:38.197Z,100.00
2023-04-24T08:13:06.718Z,100.00
2023-04-24T08:15:36.832Z,100.00
2023-04-24T08:18:05.832Z,100.00
2023-04-24T08:20:34.584Z,100.00
2023-04-24T08:23:03.143Z,100.00
2023-04-24T08:25:31.689Z,100.00
2023-04-24T08:28:00.218Z,100.00
2023-04-24T08:30:28.972Z,100.00
2023-04-24T08:32:58.938Z,100.00
2023-04-24T08:35:27.596Z,100.00
2023-04-24T08:37:56.248Z,100.00
2023-04-24T08:40:30.079Z,100.00
2023-04-24T08:42:59.054Z,100.00
2023-04-24T08:45:27.666Z,100.00
2023-04-24T08:47:59.794Z,100.00
2023-04-24T08:50:28.377Z,100.00
2023-04-24T08:52:58.034Z,100.00
2023-04-24T08:55:27.316Z,100.00
2023-04-24T08:57:56.938Z,100.00
2023-04-24T09:00:25.550Z,100.00
2023-04-24T09:02:56.388Z,100.00
2023-04-24T09:05:28.431Z,100.00
2023-04-24T09:07:58.316Z,100.00
2023-04-24T09:10:29.109Z,100.00
2023-04-24T09:12:59.192Z,100.00
2023-04-24T09:15:28.095Z,100.00
2023-04-24T09:17:56.615Z,100.00
2023-04-24T09:20:26.555Z,100.00
2023-04-24T09:22:57.332Z,100.00
2023-04-24T09:25:32.946Z,100.00
2023-04-24T09:28:04.471Z,100.00
2023-04-24T09:30:33.152Z,100.00
2023-04-24T09:33:14.891Z,100.00
2023-04-24T09:35:50.526Z,100.00
2023-04-24T09:38:19.146Z,100.00
2023-04-24T09:40:47.669Z,100.00
2023-04-24T09:43:16.246Z,100.00
2023-04-24T09:45:44.798Z,100.00
2023-04-24T09:48:13.403Z,100.00
2023-04-24T09:50:47.723Z,100.00
2023-04-24T09:53:17.626Z,100.00
2023-04-24T09:55:49.890Z,100.00
2023-04-24T09:58:18.433Z,100.00
2023-04-24T10:00:48.883Z,100.00
2023-04-24T10:03:20.072Z,100.00
2023-04-24T10:05:49.268Z,100.00
2023-04-24T10:08:19.227Z,100.00
2023-04-24T10:10:48.494Z,100.00
2023-04-24T10:13:17.715Z,100.00
2023-04-24T10:15:48.392Z,100.00
2023-04-24T10:18:17.826Z,100.00
2023-04-24T10:20:47.066Z,100.00
2023-04-24T10:23:15.917Z,100.00
2023-04-24T10:25:47.000Z,100.00
2023-04-24T10:28:16.633Z,100.00
2023-04-24T10:30:47.512Z,100.00
2023-04-24T10:33:16.889Z,100.00
2023-04-24T10:35:50.036Z,100.00
2023-04-24T10:38:25.241Z,100.00
2023-04-24T10:41:09.705Z,100.00
2023-04-24T10:43:38.430Z,100.00
2023-04-24T10:46:09.309Z,100.00
2023-04-24T10:48:38.332Z,100.00
2023-04-24T10:51:06.899Z,100.00
2023-04-24T10:53:37.969Z,100.00
2023-04-24T10:56:10.709Z,100.00
2023-04-24T10:58:41.686Z,100.00
2023-04-24T11:01:10.358Z,100.00
2023-04-24T11:03:42.936Z,100.00
2023-04-24T11:06:12.204Z,100.00
2023-04-24T11:08:44.476Z,100.00
2023-04-24T11:11:16.293Z,100.00
2023-04-24T11:14:11.905Z,100.00
2023-04-24T11:16:53.097Z,100.00
2023-04-24T11:19:25.930Z,100.00
2023-04-24T11:22:02.481Z,100.00
2023-04-24T11:24:33.879Z,100.00
2023-04-24T11:27:09.981Z,100.00
2023-04-24T11:29:46.619Z,100.00
2023-04-24T11:32:28.661Z,100.00
2023-04-24T11:34:58.552Z,100.00
2023-04-24T11:37:29.244Z,100.00
2023-04-24T11:39:59.588Z,100.00
2023-04-24T11:42:35.387Z,100.00
2023-04-24T11:45:04.707Z,100.00
2023-04-24T11:47:35.010Z,100.00
2023-04-24T11:50:04.525Z,100.00
2023-04-24T11:52:33.665Z,100.00
2023-04-24T11:55:02.881Z,100.00
2023-04-24T11:57:35.350Z,100.00
2023-04-24T12:00:05.737Z,100.00
2023-04-24T12:02:35.575Z,100.00
2023-04-24T12:05:06.132Z,100.00
2023-04-24T12:07:44.166Z,100.00
2023-04-24T12:10:13.202Z,100.00
2023-04-24T12:12:43.153Z,100.00
2023-04-24T12:15:13.489Z,100.00
2023-04-24T12:17:44.761Z,100.00
2023-04-24T12:20:15.270Z,100.00
2023-04-24T12:22:47.991Z,100.00
2023-04-24T12:25:17.435Z,100.00
2023-04-24T12:27:48.394Z,100.00
2023-04-24T12:30:18.261Z,99.54
2023-04-24T12:32:48.718Z,99.06
2023-04-24T12:35:22.691Z,100.00
2023-04-24T12:37:51.702Z,100.00
2023-04-24T12:40:22.180Z,100.00
2023-04-24T12:42:54.066Z,100.00
2023-04-24T12:45:24.890Z,100.00
2023-04-24T12:47:55.286Z,100.00
2023-04-24T12:50:23.918Z,100.00
2023-04-24T12:52:52.461Z,100.00
2023-04-24T12:55:20.988Z,100.00
2023-04-24T12:57:54.898Z,100.00
2023-04-24T13:00:23.848Z,100.00
2023-04-24T13:02:52.956Z,100.00
2023-04-24T13:05:25.180Z,100.00
2023-04-24T13:07:54.708Z,100.00
2023-04-24T13:10:24.758Z,100.00
2023-04-24T13:12:55.694Z,100.00
2023-04-24T13:15:26.382Z,100.00
2023-04-24T13:17:55.621Z,100.00
2023-04-24T13:20:25.015Z,100.00
2023-04-24T13:22:54.057Z,100.00
2023-04-24T13:25:24.996Z,100.00
2023-04-24T13:27:55.680Z,100.00
2023-04-24T13:30:24.856Z,100.00
2023-04-24T13:32:54.349Z,100.00
2023-04-24T13:35:23.654Z,93.80
2023-04-24T13:37:52.595Z,100.00
2023-04-24T13:40:21.456Z,91.35
2023-04-24T13:42:50.402Z,100.00
2023-04-24T13:45:25.384Z,98.93
2023-04-24T13:47:55.863Z,99.03
2023-04-24T13:50:25.045Z,100.00
2023-04-24T13:52:54.118Z,97.72
2023-04-24T13:55:25.237Z,99.94
2023-04-24T13:57:56.236Z,92.41
2023-04-24T14:00:27.670Z,100.00
2023-04-24T14:02:57.286Z,98.42
2023-04-24T14:05:27.794Z,88.16
2023-04-24T14:07:57.586Z,92.17
2023-04-24T14:10:26.772Z,89.84
2023-04-24T14:12:56.375Z,94.35
2023-04-24T14:15:27.308Z,87.62
2023-04-24T14:17:56.437Z,89.06
2023-04-24T14:20:26.289Z,88.44
2023-04-24T14:22:55.890Z,87.31
2023-04-24T14:25:25.379Z,89.40
2023-04-24T14:27:54.544Z,84.07
2023-04-24T14:30:23.300Z,97.53
2023-04-24T14:32:54.489Z,88.22
2023-04-24T14:35:28.202Z,100.00
2023-04-24T14:37:58.088Z,94.74
2023-04-24T14:40:58.463Z,87.12
2023-04-24T14:43:17.979Z,100.00
2023-04-24T14:45:47.317Z,99.17
2023-04-24T14:48:18.785Z,95.32
2023-04-24T14:50:48.006Z,100.00
2023-04-24T14:53:17.917Z,97.50
2023-04-24T14:55:47.013Z,85.91
2023-04-24T14:58:16.591Z,98.47
2023-04-24T15:00:45.799Z,86.98
2023-04-24T15:03:15.264Z,91.38
2023-04-24T15:05:46.244Z,88.12
2023-04-24T15:08:15.092Z,92.39
2023-04-24T15:10:44.341Z,91.50
2023-04-24T15:13:14.043Z,92.27
2023-04-24T15:15:45.264Z,86.84
2023-04-24T15:18:14.190Z,89.54
2023-04-24T15:20:44.586Z,91.47
2023-04-24T15:23:16.172Z,96.14
2023-04-24T15:25:45.207Z,98.72
2023-04-24T15:28:14.910Z,90.39
2023-04-24T15:30:43.877Z,90.16
2023-04-24T15:33:12.946Z,92.73
2023-04-24T15:35:42.806Z,93.81
2023-04-24T15:38:13.304Z,92.26
2023-04-24T15:40:42.343Z,89.66
2023-04-24T15:43:12.332Z,91.33
2023-04-24T15:45:42.574Z,92.61
2023-04-24T15:48:13.888Z,100.00
2023-04-24T15:50:45.809Z,94.41
2023-04-24T15:53:22.306Z,95.19
2023-04-24T15:55:52.437Z,88.59
2023-04-24T15:58:22.590Z,96.89
2023-04-24T16:00:53.852Z,96.32
2023-04-24T16:03:23.963Z,95.76
2023-04-24T16:05:54.669Z,99.67
2023-04-24T16:08:25.021Z,88.84
2023-04-24T16:10:54.586Z,92.90
2023-04-24T16:13:23.442Z,88.46
2023-04-24T16:15:53.324Z,90.84
2023-04-24T16:18:22.744Z,100.00
2023-04-24T16:20:52.233Z,100.00
2023-04-24T16:23:21.395Z,100.00
2023-04-24T16:25:53.366Z,99.44
2023-04-24T16:28:23.568Z,99.83
2023-04-24T16:30:52.727Z,99.91
2023-04-24T16:33:21.869Z,92.99
2023-04-24T16:35:50.767Z,92.73
2023-04-24T16:38:23.428Z,87.15
2023-04-24T16:40:54.263Z,93.44
2023-04-24T16:43:23.290Z,100.00
2023-04-24T16:45:52.693Z,82.77
2023-04-24T16:48:21.797Z,82.22
2023-04-24T16:50:51.221Z,99.29
2023-04-24T16:53:20.164Z,86.22
2023-04-24T16:55:51.196Z,92.08
2023-04-24T16:58:22.458Z,97.54
2023-04-24T17:00:51.804Z,98.21
2023-04-24T17:03:21.670Z,81.85
2023-04-24T17:05:50.974Z,93.44
2023-04-24T17:08:20.500Z,91.57
2023-04-24T17:10:49.493Z,99.59
2023-04-24T17:13:18.724Z,94.86
2023-04-24T17:15:51.198Z,90.43
2023-04-24T17:18:21.021Z,93.13
2023-04-24T17:20:51.301Z,100.00
2023-04-24T17:23:21.886Z,98.32
2023-04-24T17:25:53.900Z,97.77
2023-04-24T17:28:27.298Z,83.35
2023-04-24T17:30:59.148Z,93.78
2023-04-24T17:33:28.713Z,100.00
2023-04-24T17:36:00.820Z,92.91
2023-04-24T17:38:30.358Z,98.15
2023-04-24T17:41:00.393Z,93.93
2023-04-24T17:43:29.552Z,83.86
2023-04-24T17:46:00.322Z,88.89
2023-04-24T17:48:29.499Z,94.87
2023-04-24T17:50:58.305Z,94.57
2023-04-24T17:53:27.480Z,97.20
2023-04-24T17:55:57.993Z,92.72
2023-04-24T17:58:29.670Z,94.65
2023-04-24T18:01:00.253Z,100.00
2023-04-24T18:03:29.382Z,100.00
2023-04-24T18:05:58.692Z,94.31
2023-04-24T18:08:27.882Z,100.00
2023-04-24T18:10:56.812Z,97.35
2023-04-24T18:13:25.637Z,91.31
2023-04-24T18:15:54.829Z,94.39
2023-04-24T18:18:25.127Z,91.29
2023-04-24T18:20:54.318Z,86.15
2023-04-24T18:23:23.245Z,92.91
2023-04-24T18:25:52.037Z,93.97
2023-04-24T18:28:21.003Z,93.94
2023-04-24T18:30:50.246Z,93.25
2023-04-24T18:33:20.148Z,94.91
2023-04-24T18:35:51.286Z,94.98
2023-04-24T18:38:20.541Z,93.13
2023-04-24T18:40:49.664Z,93.19
2023-04-24T18:43:23.125Z,92.82
2023-04-24T18:45:52.118Z,92.59
2023-04-24T18:48:21.881Z,93.22
2023-04-24T18:50:52.662Z,93.33
2023-04-24T18:53:22.772Z,94.22
2023-04-24T18:55:51.626Z,92.21
2023-04-24T18:58:20.940Z,81.14
2023-04-24T19:00:50.281Z,96.55
2023-04-24T19:03:19.593Z,96.38
2023-04-24T19:05:49.063Z,97.36
2023-04-24T19:08:21.804Z,96.10
2023-04-24T19:10:51.218Z,95.14
2023-04-24T19:13:20.779Z,94.73
2023-04-24T19:15:49.513Z,93.60
2023-04-24T19:18:18.512Z,91.31
2023-04-24T19:20:47.301Z,93.40
2023-04-24T19:23:16.312Z,93.83
2023-04-24T19:25:46.422Z,92.87
2023-04-24T19:28:15.172Z,93.67
2023-04-24T19:30:46.457Z,92.86
2023-04-24T19:33:15.334Z,93.72
2023-04-24T19:35:44.295Z,93.61
2023-04-24T19:38:13.454Z,92.96
2023-04-24T19:40:42.203Z,93.68
2023-04-24T19:43:12.359Z,93.65
2023-04-24T19:45:41.473Z,92.29
2023-04-24T19:48:10.656Z,92.53
2023-04-24T19:50:39.528Z,88.31
2023-04-24T19:53:08.710Z,91.94
2023-04-24T19:55:37.592Z,96.73
2023-04-24T19:58:06.304Z,94.79
2023-04-24T20:00:36.432Z,94.31
2023-04-24T20:03:05.360Z,93.16
2023-04-24T20:05:34.115Z,93.71
2023-04-24T20:08:02.918Z,95.77
2023-04-24T20:10:32.105Z,92.66
2023-04-24T20:13:01.051Z,94.04
2023-04-24T20:15:30.198Z,92.13
2023-04-24T20:18:00.886Z,92.83
2023-04-24T20:20:29.832Z,92.89
2023-04-24T20:22:58.491Z,93.22
2023-04-24T20:25:27.740Z,93.04
2023-04-24T20:27:56.653Z,90.84
2023-04-24T20:30:26.470Z,87.56
2023-04-24T20:32:55.798Z,90.16
2023-04-24T20:35:26.078Z,94.58
2023-04-24T20:37:54.765Z,93.23
2023-04-24T20:40:24.124Z,90.27
2023-04-24T20:42:52.938Z,91.61
2023-04-24T20:45:23.353Z,93.52
2023-04-24T20:47:52.109Z,92.91
2023-04-24T20:50:21.078Z,91.49
2023-04-24T20:52:53.756Z,90.38
2023-04-24T20:55:22.924Z,92.33
2023-04-24T20:57:52.053Z,94.47
2023-04-24T21:00:21.212Z,93.08
2023-04-24T21:02:50.363Z,92.41
2023-04-24T21:05:19.445Z,91.63
2023-04-24T21:07:48.638Z,92.83
2023-04-24T21:10:19.965Z,91.13
2023-04-24T21:12:48.546Z,92.16
2023-04-24T21:15:17.474Z,91.10
2023-04-24T21:17:46.245Z,92.65
2023-04-24T21:20:15.012Z,92.29
2023-04-24T21:22:44.010Z,92.51
2023-04-24T21:25:13.130Z,91.14
2023-04-24T21:27:43.894Z,91.08
2023-04-24T21:30:13.726Z,91.76
2023-04-24T21:32:42.433Z,92.85
2023-04-24T21:35:11.615Z,92.15
2023-04-24T21:37:40.353Z,91.02
2023-04-24T21:40:11.509Z,91.98
2023-04-24T21:42:41.043Z,91.72
2023-04-24T21:45:15.115Z,92.42
2023-04-24T21:47:44.075Z,94.70
2023-04-24T21:50:13.572Z,94.39
2023-04-24T21:52:42.505Z,94.45
2023-04-24T21:55:11.901Z,96.43
2023-04-24T21:57:41.188Z,95.44
2023-04-24T22:00:13.842Z,93.35
2023-04-24T22:02:43.401Z,95.18
2023-04-24T22:05:18.210Z,92.71
2023-04-24T22:07:50.594Z,93.06
2023-04-24T22:10:20.478Z,89.33
2023-04-24T22:12:50.438Z,92.52
2023-04-24T22:15:21.046Z,92.24
2023-04-24T22:17:53.013Z,93.94
2023-04-24T22:20:23.241Z,92.36
2023-04-24T22:22:52.702Z,94.78
2023-04-24T22:25:21.418Z,95.44
2023-04-24T22:27:50.698Z,99.41
2023-04-24T22:30:20.897Z,100.00
2023-04-24T22:32:50.707Z,95.44
2023-04-24T22:35:20.478Z,92.08
2023-04-24T22:37:55.323Z,94.63
2023-04-24T22:40:25.929Z,93.22
2023-04-24T22:42:55.425Z,93.54
2023-04-24T22:45:26.282Z,93.00
2023-04-24T22:47:56.295Z,84.98
2023-04-24T22:50:25.665Z,90.44
2023-04-24T22:52:55.298Z,89.87
2023-04-24T22:55:24.471Z,95.94
2023-04-24T22:57:53.781Z,91.68
2023-04-24T23:00:23.475Z,96.94
2023-04-24T23:02:57.103Z,94.08
2023-04-24T23:05:28.100Z,92.75
2023-04-24T23:07:57.114Z,93.61
2023-04-24T23:10:26.081Z,93.14
2023-04-24T23:12:55.271Z,93.04
2023-04-24T23:15:24.455Z,92.53
2023-04-24T23:17:55.010Z,92.63
2023-04-24T23:20:24.014Z,91.57
2023-04-24T23:22:52.900Z,92.29
2023-04-24T23:25:21.861Z,91.71
2023-04-24T23:27:51.122Z,94.20
2023-04-24T23:30:20.287Z,91.39
2023-04-24T23:32:49.080Z,89.76
2023-04-24T23:35:19.707Z,91.15
2023-04-24T23:37:49.338Z,91.42
2023-04-24T23:40:18.120Z,93.72
2023-04-24T23:42:53.958Z,89.91
2023-04-24T23:45:26.197Z,90.64
2023-04-24T23:47:55.567Z,88.60
2023-04-24T23:50:26.111Z,88.69
2023-04-24T23:52:55.269Z,89.97
2023-04-24T23:55:24.233Z,90.52
2023-04-24T23:57:53.242Z,85.92
